createdAt,value
2017-12-15T00:01:52.837Z,6.18
2017-12-15T00:04:21.037Z,6.82
2017-12-15T00:06:49.170Z,6.62
2017-12-15T00:09:17.349Z,7.65
2017-12-15T00:11:45.488Z,7.70
2017-12-15T00:14:13.653Z,7.68
2017-12-15T00:16:41.822Z,7.95
2017-12-15T00:19:10.010Z,6.60
2017-12-15T00:21:38.213Z,7.05
2017-12-15T00:24:06.365Z,5.70
2017-12-15T00:26:34.533Z,5.95
2017-12-15T00:29:02.661Z,6.57
2017-12-15T00:31:30.853Z,6.10
2017-12-15T00:33:59.026Z,4.47
2017-12-15T00:36:27.203Z,5.25
2017-12-15T00:38:55.397Z,4.85
2017-12-15T00:41:23.582Z,5.12
2017-12-15T00:43:51.791Z,5.10
2017-12-15T00:46:20.001Z,5.00
2017-12-15T00:48:48.193Z,4.70
2017-12-15T00:51:16.367Z,3.90
2017-12-15T00:53:44.500Z,3.12
2017-12-15T00:56:12.744Z,3.28
2017-12-15T00:58:40.901Z,3.03
2017-12-15T01:01:09.057Z,2.95
2017-12-15T01:03:37.197Z,3.05
2017-12-15T01:06:05.393Z,3.10
2017-12-15T01:08:33.582Z,3.90
2017-12-15T01:11:01.726Z,2.83
2017-12-15T01:13:29.985Z,4.03
2017-12-15T01:15:58.118Z,3.92
2017-12-15T01:18:26.282Z,3.55
2017-12-15T01:20:54.462Z,4.07
2017-12-15T01:23:22.614Z,3.05
2017-12-15T01:25:50.769Z,3.58
2017-12-15T01:28:18.925Z,3.20
2017-12-15T01:30:47.093Z,3.40
2017-12-15T01:33:15.250Z,3.58
2017-12-15T01:35:43.400Z,3.10
2017-12-15T01:38:11.547Z,3.03
2017-12-15T01:40:39.774Z,2.80
2017-12-15T01:43:07.946Z,3.40
2017-12-15T01:45:37.117Z,3.75
2017-12-15T01:48:05.253Z,2.97
2017-12-15T01:50:33.430Z,2.95
2017-12-15T01:53:01.597Z,3.05
2017-12-15T01:55:29.741Z,2.80
2017-12-15T01:57:57.918Z,3.17
2017-12-15T02:00:26.093Z,3.47
2017-12-15T02:02:54.229Z,3.62
2017-12-15T02:05:22.430Z,2.62
2017-12-15T02:07:50.553Z,3.80
2017-12-15T02:10:18.714Z,3.28
2017-12-15T02:12:46.936Z,2.83
2017-12-15T02:15:15.069Z,3.33
2017-12-15T02:17:43.289Z,3.25
2017-12-15T02:20:11.450Z,3.12
2017-12-15T02:22:39.638Z,2.83
2017-12-15T02:25:07.815Z,3.30
2017-12-15T02:27:36.025Z,3.05
2017-12-15T02:30:04.186Z,3.25
2017-12-15T02:32:32.323Z,3.55
2017-12-15T02:35:00.466Z,2.30
2017-12-15T02:37:28.622Z,2.80
2017-12-15T02:39:56.742Z,2.83
2017-12-15T02:42:24.877Z,2.78
2017-12-15T02:44:53.025Z,2.45
2017-12-15T02:47:21.213Z,2.90
2017-12-15T02:49:49.398Z,3.28
2017-12-15T02:52:17.497Z,3.03
2017-12-15T02:54:45.658Z,3.65
2017-12-15T02:57:13.813Z,2.58
2017-12-15T02:59:41.961Z,3.40
2017-12-15T03:02:10.081Z,4.12
2017-12-15T03:04:38.243Z,3.83
2017-12-15T03:07:06.411Z,4.97
2017-12-15T03:09:34.545Z,4.85
2017-12-15T03:12:02.746Z,5.00
2017-12-15T03:14:30.889Z,4.07
2017-12-15T03:16:58.993Z,4.20
2017-12-15T03:19:27.178Z,4.25
2017-12-15T03:21:55.336Z,4.60
2017-12-15T03:24:23.485Z,3.72
2017-12-15T03:26:51.634Z,3.70
2017-12-15T03:29:19.758Z,3.60
2017-12-15T03:31:47.927Z,2.95
2017-12-15T03:34:16.134Z,3.92
2017-12-15T03:36:44.311Z,4.70
2017-12-15T03:39:12.454Z,2.83
2017-12-15T03:41:40.619Z,2.95
2017-12-15T03:44:08.785Z,3.28
2017-12-15T03:46:36.922Z,2.75
2017-12-15T03:49:05.069Z,2.80
2017-12-15T03:51:33.218Z,2.70
2017-12-15T03:54:01.404Z,2.42
2017-12-15T03:56:29.566Z,2.60
2017-12-15T03:58:57.685Z,2.33
2017-12-15T04:01:25.865Z,2.55
2017-12-15T04:03:54.097Z,2.10
2017-12-15T04:06:23.468Z,2.30
2017-12-15T04:08:51.579Z,2.45
2017-12-15T04:11:19.729Z,3.28
2017-12-15T04:13:47.959Z,2.65
2017-12-15T04:16:16.142Z,1.85
2017-12-15T04:18:44.293Z,2.05
2017-12-15T04:21:12.478Z,1.42
2017-12-15T04:23:40.638Z,1.10
2017-12-15T04:26:09.805Z,1.00
2017-12-15T04:28:37.965Z,1.17
2017-12-15T04:31:06.164Z,1.00
2017-12-15T04:33:34.334Z,0.93
2017-12-15T04:36:02.534Z,1.02
2017-12-15T04:38:30.736Z,1.33
2017-12-15T04:40:58.933Z,1.30
2017-12-15T04:43:27.062Z,1.12
2017-12-15T04:45:55.278Z,0.82
2017-12-15T04:48:23.417Z,1.00
2017-12-15T04:50:51.581Z,1.48
2017-12-15T04:53:19.785Z,0.93
2017-12-15T04:55:47.938Z,1.10
2017-12-15T04:58:16.078Z,0.90
2017-12-15T05:00:44.274Z,1.10
2017-12-15T05:03:12.426Z,1.58
2017-12-15T05:05:40.557Z,0.85
2017-12-15T05:08:08.757Z,0.85
2017-12-15T05:10:36.903Z,0.85
2017-12-15T05:13:05.071Z,0.93
2017-12-15T05:15:33.235Z,0.98
2017-12-15T05:18:01.399Z,0.90
2017-12-15T05:20:29.581Z,1.12
2017-12-15T05:22:57.734Z,1.35
2017-12-15T05:25:25.942Z,1.75
2017-12-15T05:27:54.129Z,1.62
2017-12-15T05:30:22.294Z,1.50
2017-12-15T05:32:50.422Z,1.48
2017-12-15T05:35:18.637Z,1.52
2017-12-15T05:37:46.827Z,2.53
2017-12-15T05:40:14.988Z,2.03
2017-12-15T05:42:43.173Z,1.92
2017-12-15T05:45:11.345Z,2.90
2017-12-15T05:47:39.485Z,3.05
2017-12-15T05:50:07.617Z,2.78
2017-12-15T05:52:35.781Z,2.97
2017-12-15T05:55:03.913Z,2.70
2017-12-15T05:57:32.049Z,2.40
2017-12-15T06:00:00.266Z,1.85
2017-12-15T06:02:28.385Z,1.55
2017-12-15T06:04:56.525Z,0.85
2017-12-15T06:07:24.737Z,1.30
2017-12-15T06:09:52.890Z,1.35
2017-12-15T06:12:21.129Z,0.70
2017-12-15T06:14:50.341Z,0.82
2017-12-15T06:17:18.494Z,1.37
2017-12-15T06:19:48.694Z,1.08
2017-12-15T06:22:16.846Z,1.00
2017-12-15T06:24:45.012Z,1.20
2017-12-15T06:27:13.145Z,1.37
2017-12-15T06:29:41.345Z,1.33
2017-12-15T06:32:09.530Z,1.50
2017-12-15T06:34:37.694Z,1.30
2017-12-15T06:37:05.885Z,1.40
2017-12-15T06:39:34.064Z,1.30
2017-12-15T06:42:02.258Z,1.25
2017-12-15T06:44:30.452Z,1.12
2017-12-15T06:46:58.646Z,1.10
2017-12-15T06:49:26.817Z,1.15
2017-12-15T06:51:54.985Z,1.50
2017-12-15T06:54:23.122Z,1.23
2017-12-15T06:56:51.296Z,1.75
2017-12-15T06:59:19.484Z,1.23
2017-12-15T07:01:48.753Z,2.28
2017-12-15T07:04:16.874Z,1.87
2017-12-15T07:06:45.026Z,1.45
2017-12-15T07:09:13.185Z,1.83
2017-12-15T07:11:41.352Z,1.20
2017-12-15T07:14:09.517Z,1.80
2017-12-15T07:16:38.634Z,1.70
2017-12-15T07:19:06.875Z,1.37
2017-12-15T07:21:35.028Z,1.00
2017-12-15T07:24:03.150Z,1.48
2017-12-15T07:26:31.357Z,1.33
2017-12-15T07:28:59.488Z,1.90
2017-12-15T07:31:27.612Z,2.72
2017-12-15T07:33:55.797Z,2.78
2017-12-15T07:36:23.965Z,2.28
2017-12-15T07:38:52.092Z,2.42
2017-12-15T07:41:20.289Z,2.12
2017-12-15T07:43:48.470Z,2.25
2017-12-15T07:46:16.629Z,2.62
2017-12-15T07:48:44.999Z,3.30
2017-12-15T07:51:13.244Z,4.20
2017-12-15T07:53:41.397Z,5.05
2017-12-15T07:56:09.517Z,4.70
2017-12-15T07:58:37.689Z,3.70
2017-12-15T08:01:05.842Z,3.67
2017-12-15T08:03:34.014Z,4.53
2017-12-15T08:06:02.172Z,3.95
2017-12-15T08:08:30.334Z,4.47
2017-12-15T08:10:58.489Z,3.47
2017-12-15T08:13:26.665Z,2.97
2017-12-15T08:15:54.888Z,3.50
2017-12-15T08:18:23.092Z,3.12
2017-12-15T08:20:51.277Z,2.53
2017-12-15T08:23:19.418Z,3.10
2017-12-15T08:25:47.613Z,3.65
2017-12-15T08:28:15.793Z,3.33
2017-12-15T08:30:43.938Z,3.25
2017-12-15T08:33:12.130Z,3.75
2017-12-15T08:35:40.305Z,3.50
2017-12-15T08:38:08.416Z,3.28
2017-12-15T08:40:36.610Z,2.80
2017-12-15T08:43:04.772Z,1.92
2017-12-15T08:45:32.949Z,2.10
2017-12-15T08:48:01.161Z,4.65
2017-12-15T08:50:29.309Z,2.42
2017-12-15T08:52:57.443Z,2.00
2017-12-15T08:55:25.635Z,2.33
2017-12-15T08:57:53.806Z,3.03
2017-12-15T09:00:21.945Z,2.42
2017-12-15T09:02:50.146Z,2.12
2017-12-15T09:05:18.321Z,2.28
2017-12-15T09:07:46.506Z,1.55
2017-12-15T09:10:14.629Z,1.50
2017-12-15T09:12:42.813Z,1.52
2017-12-15T09:15:12.573Z,2.40
2017-12-15T09:17:39.101Z,2.28
2017-12-15T09:20:07.303Z,2.35
2017-12-15T09:22:35.489Z,3.72
2017-12-15T09:25:03.701Z,2.03
2017-12-15T09:27:31.915Z,1.85
2017-12-15T09:30:00.067Z,1.52
2017-12-15T09:32:28.222Z,1.55
2017-12-15T09:34:56.437Z,1.90
2017-12-15T09:37:24.609Z,1.85
2017-12-15T09:39:52.738Z,1.40
2017-12-15T09:42:20.910Z,1.55
2017-12-15T09:44:50.074Z,1.35
2017-12-15T09:47:18.258Z,1.40
2017-12-15T09:49:46.446Z,1.05
2017-12-15T09:52:14.601Z,1.10
2017-12-15T09:54:42.749Z,0.88
2017-12-15T09:57:10.930Z,0.70
2017-12-15T09:59:39.121Z,0.70
2017-12-15T10:02:07.302Z,1.00
2017-12-15T10:04:35.498Z,1.08
2017-12-15T10:07:03.653Z,1.05
2017-12-15T10:09:31.793Z,1.50
2017-12-15T10:11:59.918Z,2.25
2017-12-15T10:14:29.139Z,1.50
2017-12-15T10:16:57.306Z,1.42
2017-12-15T10:19:25.486Z,1.73
2017-12-15T10:21:53.657Z,1.25
2017-12-15T10:24:21.780Z,1.87
2017-12-15T10:26:49.921Z,1.50
2017-12-15T10:29:18.057Z,1.83
2017-12-15T10:31:46.181Z,1.48
2017-12-15T10:34:14.352Z,1.70
2017-12-15T10:36:42.525Z,2.37
2017-12-15T10:39:10.690Z,2.30
2017-12-15T10:41:38.837Z,1.90
2017-12-15T10:44:06.969Z,2.20
2017-12-15T10:46:35.194Z,3.65
2017-12-15T10:49:03.337Z,3.40
2017-12-15T10:51:31.505Z,3.65
2017-12-15T10:53:59.629Z,3.17
2017-12-15T10:56:27.792Z,3.80
2017-12-15T10:58:55.997Z,3.15
2017-12-15T11:01:24.117Z,3.25
2017-12-15T11:03:52.266Z,3.12
2017-12-15T11:06:21.439Z,3.65
2017-12-15T11:08:50.018Z,3.55
2017-12-15T11:11:18.162Z,3.50
2017-12-15T11:13:46.340Z,3.50
2017-12-15T11:16:14.485Z,3.90
2017-12-15T11:18:42.673Z,5.15
2017-12-15T11:21:10.805Z,4.85
2017-12-15T11:23:38.958Z,4.80
2017-12-15T11:26:07.153Z,3.80
2017-12-15T11:28:35.300Z,4.40
2017-12-15T11:31:03.501Z,3.55
2017-12-15T11:33:31.709Z,4.80
2017-12-15T11:35:59.878Z,3.33
2017-12-15T11:38:28.020Z,3.85
2017-12-15T11:40:56.185Z,5.43
2017-12-15T11:43:24.393Z,4.12
2017-12-15T11:45:53.630Z,5.00
2017-12-15T11:48:21.835Z,4.20
2017-12-15T11:50:50.038Z,4.68
2017-12-15T11:53:18.173Z,4.80
2017-12-15T11:55:46.329Z,4.20
2017-12-15T11:58:14.478Z,4.18
2017-12-15T12:00:42.598Z,4.45
2017-12-15T12:03:10.782Z,5.78
2017-12-15T12:05:38.937Z,4.28
2017-12-15T12:08:07.041Z,5.55
2017-12-15T12:10:35.199Z,4.90
2017-12-15T12:13:04.372Z,5.12
2017-12-15T12:15:32.557Z,5.47
2017-12-15T12:18:00.779Z,6.18
2017-12-15T12:20:28.989Z,5.55
2017-12-15T12:22:57.145Z,4.47
2017-12-15T12:25:26.346Z,5.82
2017-12-15T12:27:55.550Z,5.57
2017-12-15T12:30:23.673Z,4.85
2017-12-15T12:32:51.865Z,5.87
2017-12-15T12:35:20.042Z,6.05
2017-12-15T12:37:48.159Z,5.20
2017-12-15T12:40:19.668Z,5.03
2017-12-15T12:42:47.822Z,5.55
2017-12-15T12:45:15.998Z,6.55
2017-12-15T12:47:44.150Z,5.65
2017-12-15T12:50:12.282Z,5.95
2017-12-15T12:52:40.464Z,6.18
2017-12-15T12:55:08.580Z,5.87
2017-12-15T12:57:36.733Z,6.03
2017-12-15T13:00:04.891Z,5.90
2017-12-15T13:02:33.066Z,6.70
2017-12-15T13:05:01.247Z,6.30
2017-12-15T13:07:29.433Z,6.93
2017-12-15T13:09:57.610Z,5.87
2017-12-15T13:12:25.797Z,5.95
2017-12-15T13:14:55.028Z,6.18
2017-12-15T13:17:23.189Z,6.43
2017-12-15T13:19:51.382Z,6.57
2017-12-15T13:22:19.497Z,5.75
2017-12-15T13:24:47.642Z,6.03
2017-12-15T13:27:15.825Z,6.10
2017-12-15T13:29:44.005Z,4.80
2017-12-15T13:32:12.213Z,6.47
2017-12-15T13:34:40.378Z,6.22
2017-12-15T13:37:08.538Z,6.20
2017-12-15T13:39:36.713Z,5.90
2017-12-15T13:42:04.908Z,6.28
2017-12-15T13:44:33.070Z,5.50
2017-12-15T13:47:01.233Z,6.60
2017-12-15T13:49:29.432Z,8.52
2017-12-15T13:51:57.598Z,6.10
2017-12-15T13:54:25.769Z,7.00
2017-12-15T13:56:53.950Z,8.00
2017-12-15T13:59:22.113Z,6.55
2017-12-15T14:01:50.257Z,9.32
2017-12-15T14:04:18.393Z,6.90
2017-12-15T14:06:46.553Z,4.82
2017-12-15T14:09:14.707Z,4.65
2017-12-15T14:11:42.869Z,4.78
2017-12-15T14:14:11.014Z,4.50
2017-12-15T14:16:39.153Z,4.07
2017-12-15T14:19:07.310Z,4.22
2017-12-15T14:21:35.506Z,4.22
2017-12-15T14:24:03.697Z,3.70
2017-12-15T14:26:31.861Z,3.60
2017-12-15T14:29:00.010Z,3.30
2017-12-15T14:31:28.168Z,3.25
2017-12-15T14:33:56.336Z,2.45
2017-12-15T14:36:24.562Z,3.45
2017-12-15T14:38:52.752Z,2.70
2017-12-15T14:41:20.874Z,3.00
2017-12-15T14:43:49.102Z,4.07
2017-12-15T14:46:17.277Z,2.67
2017-12-15T14:48:51.788Z,2.87
2017-12-15T14:51:13.661Z,2.35
2017-12-15T14:53:41.842Z,2.83
2017-12-15T14:56:10.013Z,2.70
2017-12-15T14:58:38.155Z,2.65
2017-12-15T15:01:06.309Z,3.22
2017-12-15T15:03:34.444Z,3.20
2017-12-15T15:06:02.641Z,3.03
2017-12-15T15:08:30.861Z,3.10
2017-12-15T15:10:59.060Z,3.45
2017-12-15T15:13:27.273Z,2.90
2017-12-15T15:15:55.482Z,3.33
2017-12-15T15:18:23.746Z,3.58
2017-12-15T15:20:51.885Z,2.97
2017-12-15T15:23:20.001Z,3.10
2017-12-15T15:25:48.142Z,3.17
2017-12-15T15:28:16.306Z,2.85
2017-12-15T15:30:44.461Z,2.92
2017-12-15T15:33:12.662Z,2.35
2017-12-15T15:35:40.862Z,2.25
2017-12-15T15:38:10.082Z,3.20
2017-12-15T15:40:38.245Z,2.55
2017-12-15T15:43:06.426Z,2.67
2017-12-15T15:45:34.591Z,2.75
2017-12-15T15:48:02.770Z,2.58
2017-12-15T15:50:30.980Z,2.97
2017-12-15T15:52:59.153Z,3.47
2017-12-15T15:55:27.310Z,2.03
2017-12-15T15:57:55.514Z,3.12
2017-12-15T16:00:23.683Z,2.42
2017-12-15T16:02:51.873Z,2.83
2017-12-15T16:05:20.009Z,3.72
2017-12-15T16:07:48.133Z,2.97
2017-12-15T16:10:16.326Z,3.58
2017-12-15T16:12:44.482Z,4.45
2017-12-15T16:15:12.652Z,4.25
2017-12-15T16:17:40.789Z,4.15
2017-12-15T16:20:08.950Z,3.85
2017-12-15T16:22:37.145Z,4.20
2017-12-15T16:25:05.317Z,4.10
2017-12-15T16:27:33.516Z,4.05
2017-12-15T16:30:01.694Z,3.33
2017-12-15T16:32:29.870Z,4.32
2017-12-15T16:34:58.010Z,3.62
2017-12-15T16:37:26.151Z,2.95
2017-12-15T16:39:54.292Z,3.25
2017-12-15T16:42:22.489Z,2.83
2017-12-15T16:44:50.617Z,3.97
2017-12-15T16:47:18.802Z,3.70
2017-12-15T16:49:46.977Z,3.58
2017-12-15T16:52:15.150Z,3.78
2017-12-15T16:54:43.330Z,3.45
2017-12-15T16:57:11.530Z,3.72
2017-12-15T16:59:39.750Z,3.97
2017-12-15T17:02:07.903Z,4.22
2017-12-15T17:04:36.109Z,3.95
2017-12-15T17:07:04.247Z,3.15
2017-12-15T17:09:32.470Z,3.92
2017-12-15T17:12:00.702Z,2.70
2017-12-15T17:14:28.838Z,3.10
2017-12-15T17:16:57.018Z,4.03
2017-12-15T17:19:25.218Z,3.67
2017-12-15T17:21:53.389Z,3.87
2017-12-15T17:24:21.554Z,3.62
2017-12-15T17:26:49.729Z,3.45
2017-12-15T17:29:17.898Z,3.45
2017-12-15T17:31:46.046Z,3.75
2017-12-15T17:34:14.273Z,3.30
2017-12-15T17:36:43.418Z,3.30
2017-12-15T17:39:11.581Z,3.33
2017-12-15T17:41:39.782Z,3.30
2017-12-15T17:44:07.948Z,3.37
2017-12-15T17:46:37.230Z,3.80
2017-12-15T17:49:05.422Z,3.90
2017-12-15T17:51:33.618Z,2.80
2017-12-15T17:54:01.786Z,4.20
2017-12-15T17:56:29.949Z,4.30
2017-12-15T17:58:58.150Z,3.87
2017-12-15T18:01:26.326Z,3.70
2017-12-15T18:03:54.874Z,4.40
2017-12-15T18:06:23.002Z,3.50
2017-12-15T18:08:51.206Z,3.90
2017-12-15T18:11:19.338Z,4.25
2017-12-15T18:13:47.518Z,4.55
2017-12-15T18:16:15.679Z,4.80
2017-12-15T18:18:43.894Z,6.07
2017-12-15T18:21:12.022Z,4.70
2017-12-15T18:23:40.141Z,5.40
2017-12-15T18:26:08.277Z,4.85
2017-12-15T18:28:36.509Z,5.35
2017-12-15T18:31:04.637Z,4.80
2017-12-15T18:33:32.830Z,4.05
2017-12-15T18:36:00.986Z,4.22
2017-12-15T18:38:30.113Z,4.37
2017-12-15T18:40:58.304Z,4.75
2017-12-15T18:43:26.491Z,4.60
2017-12-15T18:45:54.639Z,4.22
2017-12-15T18:48:22.877Z,5.03
2017-12-15T18:50:51.024Z,4.40
2017-12-15T18:53:19.207Z,5.22
2017-12-15T18:55:47.417Z,4.53
2017-12-15T18:58:15.567Z,4.03
2017-12-15T19:00:43.806Z,3.75
2017-12-15T19:03:11.972Z,3.05
2017-12-15T19:05:40.096Z,4.12
2017-12-15T19:08:08.301Z,4.10
2017-12-15T19:10:36.466Z,3.70
2017-12-15T19:13:04.685Z,3.53
2017-12-15T19:15:32.841Z,3.60
2017-12-15T19:18:01.139Z,3.97
2017-12-15T19:20:29.345Z,3.28
2017-12-15T19:22:57.522Z,3.05
2017-12-15T19:25:25.702Z,3.55
2017-12-15T19:27:53.861Z,3.47
2017-12-15T19:30:22.026Z,3.15
2017-12-15T19:32:50.237Z,4.28
2017-12-15T19:35:18.417Z,3.92
2017-12-15T19:37:46.615Z,4.18
2017-12-15T19:40:14.814Z,4.55
2017-12-15T19:42:42.982Z,3.97
2017-12-15T19:45:11.161Z,4.15
2017-12-15T19:47:39.385Z,4.40
2017-12-15T19:50:07.570Z,4.43
2017-12-15T19:52:35.777Z,4.35
2017-12-15T19:55:03.978Z,4.55
2017-12-15T19:57:32.149Z,4.20
2017-12-15T20:00:00.381Z,3.03
2017-12-15T20:02:28.545Z,4.10
2017-12-15T20:04:56.710Z,3.58
2017-12-15T20:07:24.866Z,4.30
2017-12-15T20:09:53.063Z,2.85
2017-12-15T20:12:21.234Z,3.60
2017-12-15T20:14:49.821Z,3.33
2017-12-15T20:17:18.044Z,3.03
2017-12-15T20:19:46.215Z,4.30
2017-12-15T20:22:14.379Z,3.10
2017-12-15T20:24:42.565Z,3.90
2017-12-15T20:27:10.701Z,3.30
2017-12-15T20:29:38.853Z,3.30
2017-12-15T20:32:07.057Z,4.07
2017-12-15T20:34:35.226Z,3.53
2017-12-15T20:37:03.433Z,4.05
2017-12-15T20:39:31.641Z,3.72
2017-12-15T20:41:59.811Z,3.85
2017-12-15T20:44:28.065Z,3.50
2017-12-15T20:46:56.242Z,3.95
2017-12-15T20:49:24.384Z,4.45
2017-12-15T20:51:52.550Z,3.85
2017-12-15T20:54:21.762Z,4.35
2017-12-15T20:56:49.922Z,3.97
2017-12-15T20:59:18.121Z,4.47
2017-12-15T21:01:46.270Z,4.12
2017-12-15T21:04:14.444Z,4.40
2017-12-15T21:06:42.653Z,3.87
2017-12-15T21:09:10.825Z,3.25
2017-12-15T21:11:38.982Z,4.03
2017-12-15T21:14:07.190Z,3.95
2017-12-15T21:16:35.352Z,3.42
2017-12-15T21:19:03.618Z,3.75
2017-12-15T21:21:31.854Z,5.20
2017-12-15T21:24:00.046Z,4.72
2017-12-15T21:26:28.246Z,4.20
2017-12-15T21:28:56.469Z,3.97
2017-12-15T21:31:24.669Z,4.30
2017-12-15T21:33:52.906Z,4.40
2017-12-15T21:36:21.418Z,4.55
2017-12-15T21:38:49.646Z,4.25
2017-12-15T21:41:17.886Z,3.60
2017-12-15T21:43:46.070Z,4.20
2017-12-15T21:46:14.211Z,3.80
2017-12-15T21:48:42.651Z,4.50
2017-12-15T21:51:10.850Z,4.62
2017-12-15T21:53:38.986Z,4.97
2017-12-15T21:56:07.127Z,4.60
2017-12-15T21:58:35.313Z,5.12
2017-12-15T22:01:03.458Z,4.82
2017-12-15T22:03:31.647Z,4.65
2017-12-15T22:05:59.839Z,3.83
2017-12-15T22:08:28.022Z,4.72
2017-12-15T22:10:56.183Z,4.55
2017-12-15T22:13:24.381Z,4.82
2017-12-15T22:15:52.556Z,4.60
2017-12-15T22:18:20.738Z,4.60
2017-12-15T22:20:48.921Z,4.97
2017-12-15T22:23:17.107Z,4.30
2017-12-15T22:25:45.330Z,4.62
2017-12-15T22:28:13.488Z,5.68
2017-12-15T22:30:41.674Z,4.90
2017-12-15T22:33:09.830Z,4.55
2017-12-15T22:35:37.989Z,4.30
2017-12-15T22:38:06.161Z,4.93
2017-12-15T22:40:34.318Z,5.35
2017-12-15T22:43:02.495Z,4.80
2017-12-15T22:45:30.662Z,4.57
2017-12-15T22:47:58.759Z,3.85
2017-12-15T22:50:26.966Z,5.18
2017-12-15T22:52:55.205Z,3.92
2017-12-15T22:55:23.318Z,4.32
2017-12-15T22:57:51.513Z,4.00
2017-12-15T23:00:19.633Z,4.35
2017-12-15T23:02:47.814Z,5.15
2017-12-15T23:05:15.970Z,4.45
2017-12-15T23:07:44.178Z,5.18
2017-12-15T23:10:12.347Z,4.90
2017-12-15T23:12:40.558Z,5.57
2017-12-15T23:15:08.693Z,5.40
2017-12-15T23:17:36.870Z,5.00
2017-12-15T23:20:05.021Z,5.80
2017-12-15T23:22:34.105Z,5.30
2017-12-15T23:25:02.284Z,5.30
2017-12-15T23:27:30.478Z,5.53
2017-12-15T23:29:58.641Z,5.70
2017-12-15T23:32:26.810Z,5.68
2017-12-15T23:34:55.058Z,5.78
2017-12-15T23:37:26.252Z,6.10
2017-12-15T23:39:54.526Z,5.18
2017-12-15T23:42:23.205Z,6.43
2017-12-15T23:44:51.473Z,4.45
2017-12-15T23:47:19.648Z,5.75
2017-12-15T23:49:48.877Z,5.47
2017-12-15T23:52:17.093Z,5.45
2017-12-15T23:55:01.042Z,5.15
2017-12-15T23:57:29.194Z,5.37
2017-12-15T23:59:57.345Z,4.65
